Gu Achi, AZ

10:40 AM MST on September 17, 2014 (GMT -0700)
Ryan | Change Station
CLOSE
Current Station
Airport
Location: Tucson,
Elevation: 2418 ft
Nearby Weather Stations
Active Advisory: Flash Flood Watch

Elev 2418 ft 32.14 °N, 111.17 °W | Updated 55 minutes ago

Mostly Cloudy
Mostly Cloudy
75 °F
Feels Like 75 °F
N
9
Wind Variable Wind from East

Today
High -- | Low -- °F
--% Chance of Precip.
Yesterday
High -- | Low -- °F
Precip. -- in
6:12 AM 6:30 PM
Waning Crescent, 34% visible
Pressure 29.92 in
Visibility 10.0 miles
Clouds Clear
Dew Point 73 °F
Humidity 94%
Rainfall 0.00 in
Snow Depth 0 in , 0 in , 2 in
UV 6 out of 12
Pollen .90 out of 12
Air Quality Not available.
Flu Activity Not available.
METAR KRYN 171645Z 10008KT 10SM CLR 24/23 A2992

More Conditions Fewer Conditions

Pressure 29.92 in
Visibility 10.0 miles
Clouds Clear
Dew Point 73 °F
Humidity 94%
Rainfall 0.00 in
Snow Depth 0 in , 0 in , 2 in
UV 6 out of 12
Pollen .90 out of 12
Air Quality Not available.
Flu Activity Not available.
METAR KRYN 171645Z 10008KT 10SM CLR 24/23 A2992

More Conditions Fewer Conditions

10-Day Weather Forecast

Almanac

Astronomy

Sep. 17, 2014 Rise Set
Actual Time 6:12 AM MST 6:30 PM MST
Civil Twilight 5:48 AM MST 6:55 PM MST
Nautical Twilight 5:19 AM MST 7:23 PM MST
Astronomical Twilight 4:50 AM MST 7:52 PM MST
Moon 12:30 AM MST 2:28 PM MST
Length of Visible Light 13h 06m
Length of Day
12h 17m
Tomorrow will be 1m 57s shorter.
Waning Crescent, 34% of the Moon is Illuminated
Today
Waning Crescent
Sep 24
New
Oct 1
First Quarter
Oct 8
Full
Oct 15
Last Quarter

Today's Extremes

State Highs State Lows

Community

WunderPhotos

Upload Photos

1,754,111 photos uploaded!

Nearby

Snow Depth

Station Depth Elevation
Maverick Fork 0 in 9200 ft
Happy Jack 0 in 7630 ft
Workman Creek 2 in 6900 ft
Snowslide Canyon 0 in 9730 ft
Promontory 0 in 7930 ft

Earthquake Activity

City Distance Mag. Time & Date
No recent earthquake activity has been reported nearby.
Minimum magnitude displayed is 2.5.

Coastal Water Temperatures

Place Temperature
No Stations Reporting

Nearby Weather Stations